DAL458 PHNL-PHKO
Flight info
| Callsign | DAL458 |
|---|---|
| Flight time | 0h 34m |
| Altitude | 17000 |
| Route | PALAY3 LNY VECKI9 |
| Aircraft | CRJ9/M-SDFGIRWY/S |
Departure
| Time | 2026-04-22 15:40 |
|---|---|
| Airport | Daniel K. Inouye International Airport (PHNL) |
Arrival
| Time | 2026-04-22 16:14 |
|---|---|
| Airport | Ellison Onizuka Kona International Airport at Keāhole (PHKO) |
| Time | Latitude | Longitude | Altitude | Speed | Heading |
|---|---|---|---|---|---|
| 2026-04-22 15:25 | 21.32878 | -157.92068 | 0 ft | 0 kts | 39° |
| 2026-04-22 15:30 | 21.32863 | -157.92081 | 10 ft | 3 kts | 39° |
| 2026-04-22 15:30 | 21.32849 | -157.92093 | 10 ft | 3 kts | 39° |
| 2026-04-22 15:30 | 21.32835 | -157.92106 | 11 ft | 3 kts | 39° |
| 2026-04-22 15:30 | 21.32828 | -157.92123 | 11 ft | 3 kts | 97° |
| 2026-04-22 15:31 | 21.32833 | -157.92135 | 11 ft | 0 kts | 130° |
| 2026-04-22 15:33 | 21.32824 | -157.92124 | 11 ft | 6 kts | 130° |
| 2026-04-22 15:34 | 21.32794 | -157.92086 | 11 ft | 7 kts | 129° |
| 2026-04-22 15:34 | 21.32776 | -157.92034 | 10 ft | 8 kts | 95° |
| 2026-04-22 15:34 | 21.32771 | -157.91965 | 9 ft | 10 kts | 104° |
| 2026-04-22 15:34 | 21.32727 | -157.91913 | 10 ft | 9 kts | 144° |
| 2026-04-22 15:35 | 21.32693 | -157.91863 | 10 ft | 8 kts | 96° |
| 2026-04-22 15:35 | 21.32692 | -157.91798 | 10 ft | 9 kts | 90° |
| 2026-04-22 15:35 | 21.32691 | -157.91726 | 10 ft | 10 kts | 90° |
| 2026-04-22 15:35 | 21.32691 | -157.91649 | 9 ft | 11 kts | 90° |
| 2026-04-22 15:36 | 21.32693 | -157.91565 | 9 ft | 12 kts | 87° |
| 2026-04-22 15:36 | 21.32694 | -157.91476 | 9 ft | 12 kts | 91° |
| 2026-04-22 15:36 | 21.32693 | -157.91383 | 9 ft | 13 kts | 91° |
| 2026-04-22 15:36 | 21.32654 | -157.91315 | 8 ft | 11 kts | 181° |
| 2026-04-22 15:37 | 21.32582 | -157.91326 | 8 ft | 10 kts | 188° |
| 2026-04-22 15:37 | 21.32526 | -157.91311 | 7 ft | 8 kts | 101° |
| 2026-04-22 15:37 | 21.32525 | -157.91233 | 6 ft | 12 kts | 89° |
| 2026-04-22 15:37 | 21.32525 | -157.91142 | 6 ft | 13 kts | 91° |
| 2026-04-22 15:38 | 21.32524 | -157.91046 | 9 ft | 12 kts | 90° |
| 2026-04-22 15:38 | 21.32525 | -157.90890 | 12 ft | 10 kts | 79° |
| 2026-04-22 15:38 | 21.32555 | -157.90826 | 12 ft | 10 kts | 72° |
| 2026-04-22 15:39 | 21.32531 | -157.90791 | 12 ft | 3 kts | 213° |
| 2026-04-22 15:39 | 21.32525 | -157.90804 | 12 ft | 5 kts | 258° |
| 2026-04-22 15:39 | 21.32524 | -157.90843 | 12 ft | 5 kts | 269° |
| 2026-04-22 15:39 | 21.32525 | -157.91054 | 8 ft | 62 kts | 270° |
| 2026-04-22 15:40 | 21.32524 | -157.91763 | 8 ft | 125 kts | 270° |
| 2026-04-22 15:40 | 21.32528 | -157.92873 | 47 ft | 168 kts | 271° |
| 2026-04-22 15:40 | 21.32537 | -157.94156 | 634 ft | 173 kts | 278° |
| 2026-04-22 15:40 | 21.32944 | -157.95350 | 1349 ft | 170 kts | 309° |
| 2026-04-22 15:41 | 21.33954 | -157.95972 | 1761 ft | 179 kts | 1° |
| 2026-04-22 15:41 | 21.35031 | -157.95443 | 2394 ft | 169 kts | 55° |
| 2026-04-22 15:41 | 21.35384 | -157.94273 | 3094 ft | 170 kts | 90° |
| 2026-04-22 15:41 | 21.35049 | -157.93063 | 3663 ft | 175 kts | 122° |
| 2026-04-22 15:42 | 21.34261 | -157.92046 | 4201 ft | 185 kts | 131° |
| 2026-04-22 15:42 | 21.33311 | -157.91002 | 4598 ft | 206 kts | 135° |
| 2026-04-22 15:42 | 21.32246 | -157.89831 | 5023 ft | 232 kts | 131° |
| 2026-04-22 15:42 | 21.31156 | -157.88432 | 5479 ft | 256 kts | 128° |
| 2026-04-22 15:43 | 21.30014 | -157.86865 | 5974 ft | 277 kts | 127° |
| 2026-04-22 15:43 | 21.28830 | -157.85154 | 6567 ft | 294 kts | 125° |
| 2026-04-22 15:43 | 21.27620 | -157.83308 | 7129 ft | 311 kts | 124° |
| 2026-04-22 15:43 | 21.26363 | -157.81348 | 7684 ft | 327 kts | 124° |
| 2026-04-22 15:44 | 21.25050 | -157.79311 | 8318 ft | 338 kts | 125° |
| 2026-04-22 15:44 | 21.23695 | -157.77231 | 9203 ft | 342 kts | 125° |
| 2026-04-22 15:44 | 21.22339 | -157.75147 | 10053 ft | 346 kts | 126° |
| 2026-04-22 15:44 | 21.20941 | -157.73012 | 10809 ft | 352 kts | 125° |
| 2026-04-22 15:45 | 21.19528 | -157.70843 | 11576 ft | 356 kts | 124° |
| 2026-04-22 15:45 | 21.18104 | -157.68651 | 12371 ft | 360 kts | 124° |
| 2026-04-22 15:45 | 21.16664 | -157.66443 | 13144 ft | 363 kts | 123° |
| 2026-04-22 15:45 | 21.15207 | -157.64211 | 13885 ft | 367 kts | 123° |
| 2026-04-22 15:46 | 21.13735 | -157.61953 | 14525 ft | 372 kts | 123° |
| 2026-04-22 15:46 | 21.12259 | -157.59695 | 15153 ft | 377 kts | 124° |
| 2026-04-22 15:46 | 21.11097 | -157.57912 | 15637 ft | 380 kts | 123° |
| 2026-04-22 15:46 | 21.09648 | -157.55525 | 16255 ft | 385 kts | 121° |
| 2026-04-22 15:47 | 21.08251 | -157.53041 | 16669 ft | 393 kts | 119° |
| 2026-04-22 15:47 | 21.06860 | -157.50509 | 16852 ft | 394 kts | 119° |
| 2026-04-22 15:47 | 21.05463 | -157.47968 | 16931 ft | 398 kts | 119° |
| 2026-04-22 15:47 | 21.04044 | -157.45398 | 16969 ft | 402 kts | 120° |
| 2026-04-22 15:48 | 21.02610 | -157.42853 | 16989 ft | 404 kts | 120° |
| 2026-04-22 15:48 | 21.01147 | -157.40269 | 16986 ft | 405 kts | 120° |
| 2026-04-22 15:48 | 20.99822 | -157.37924 | 16993 ft | 406 kts | 120° |
| 2026-04-22 15:48 | 20.98570 | -157.35709 | 17000 ft | 406 kts | 120° |
| 2026-04-22 15:49 | 20.97104 | -157.33128 | 16995 ft | 406 kts | 120° |
| 2026-04-22 15:49 | 20.95644 | -157.30551 | 16993 ft | 406 kts | 120° |
| 2026-04-22 15:49 | 20.94183 | -157.27963 | 17005 ft | 407 kts | 120° |
| 2026-04-22 15:49 | 20.92725 | -157.25402 | 17006 ft | 407 kts | 120° |
| 2026-04-22 15:50 | 20.91243 | -157.22822 | 17019 ft | 407 kts | 120° |
| 2026-04-22 15:50 | 20.89756 | -157.20250 | 17021 ft | 407 kts | 120° |
| 2026-04-22 15:50 | 20.88272 | -157.17662 | 17027 ft | 408 kts | 120° |
| 2026-04-22 15:50 | 20.86818 | -157.15104 | 17040 ft | 408 kts | 120° |
| 2026-04-22 15:51 | 20.85346 | -157.12505 | 17046 ft | 408 kts | 120° |
| 2026-04-22 15:51 | 20.83873 | -157.09906 | 17046 ft | 408 kts | 120° |
| 2026-04-22 15:51 | 20.82400 | -157.07314 | 17051 ft | 408 kts | 120° |
| 2026-04-22 15:51 | 20.80920 | -157.04719 | 17059 ft | 408 kts | 120° |
| 2026-04-22 15:52 | 20.79436 | -157.02121 | 17063 ft | 408 kts | 120° |
| 2026-04-22 15:52 | 20.77992 | -156.99592 | 17064 ft | 408 kts | 120° |
| 2026-04-22 15:52 | 20.76846 | -156.97581 | 17066 ft | 409 kts | 120° |
| 2026-04-22 15:52 | 20.75271 | -156.95027 | 17068 ft | 409 kts | 125° |
| 2026-04-22 15:53 | 20.73532 | -156.92609 | 17055 ft | 409 kts | 128° |
| 2026-04-22 15:53 | 20.71745 | -156.90230 | 17064 ft | 409 kts | 128° |
| 2026-04-22 15:53 | 20.69984 | -156.87864 | 17052 ft | 409 kts | 127° |
| 2026-04-22 15:53 | 20.68250 | -156.85453 | 17046 ft | 409 kts | 127° |
| 2026-04-22 15:54 | 20.66518 | -156.83033 | 17055 ft | 410 kts | 126° |
| 2026-04-22 15:54 | 20.64790 | -156.80610 | 17038 ft | 410 kts | 127° |
| 2026-04-22 15:54 | 20.63062 | -156.78195 | 17032 ft | 410 kts | 127° |
| 2026-04-22 15:54 | 20.61354 | -156.75807 | 17028 ft | 410 kts | 126° |
| 2026-04-22 15:55 | 20.59623 | -156.73382 | 17032 ft | 410 kts | 127° |
| 2026-04-22 15:55 | 20.57888 | -156.70961 | 17015 ft | 410 kts | 127° |
| 2026-04-22 15:55 | 20.56158 | -156.68546 | 17019 ft | 410 kts | 126° |
| 2026-04-22 15:55 | 20.54429 | -156.66126 | 17016 ft | 410 kts | 127° |
| 2026-04-22 15:56 | 20.52694 | -156.63707 | 17003 ft | 410 kts | 127° |
| 2026-04-22 15:56 | 20.50964 | -156.61291 | 16996 ft | 410 kts | 126° |
| 2026-04-22 15:56 | 20.49235 | -156.58875 | 16999 ft | 410 kts | 127° |
| 2026-04-22 15:56 | 20.47493 | -156.56459 | 17007 ft | 410 kts | 127° |
| 2026-04-22 15:57 | 20.45764 | -156.54042 | 16994 ft | 410 kts | 127° |
| 2026-04-22 15:57 | 20.44033 | -156.51631 | 17009 ft | 410 kts | 127° |
| 2026-04-22 15:57 | 20.42315 | -156.49244 | 16995 ft | 410 kts | 127° |
| 2026-04-22 15:57 | 20.40581 | -156.46824 | 17005 ft | 410 kts | 127° |
| 2026-04-22 15:58 | 20.38842 | -156.44406 | 16999 ft | 410 kts | 127° |
| 2026-04-22 15:58 | 20.37099 | -156.41985 | 16998 ft | 410 kts | 127° |
| 2026-04-22 15:58 | 20.35366 | -156.39573 | 16993 ft | 410 kts | 127° |
| 2026-04-22 15:58 | 20.33630 | -156.37165 | 16996 ft | 410 kts | 127° |
| 2026-04-22 15:59 | 20.31915 | -156.34784 | 16994 ft | 410 kts | 127° |
| 2026-04-22 15:59 | 20.30181 | -156.32375 | 16985 ft | 410 kts | 127° |
| 2026-04-22 15:59 | 20.28444 | -156.29964 | 16987 ft | 410 kts | 127° |
| 2026-04-22 15:59 | 20.26707 | -156.27556 | 16996 ft | 410 kts | 127° |
| 2026-04-22 16:00 | 20.24970 | -156.25146 | 16992 ft | 410 kts | 127° |
| 2026-04-22 16:00 | 20.23236 | -156.22734 | 17002 ft | 410 kts | 127° |
| 2026-04-22 16:00 | 20.21496 | -156.20330 | 16997 ft | 410 kts | 127° |
| 2026-04-22 16:00 | 20.19755 | -156.17924 | 17000 ft | 410 kts | 127° |
| 2026-04-22 16:01 | 20.18016 | -156.15518 | 17002 ft | 410 kts | 127° |
| 2026-04-22 16:01 | 20.16275 | -156.13101 | 16995 ft | 410 kts | 127° |
| 2026-04-22 16:01 | 20.14535 | -156.10696 | 16997 ft | 410 kts | 127° |
| 2026-04-22 16:01 | 20.13383 | -156.09104 | 17000 ft | 410 kts | 127° |
| 2026-04-22 16:02 | 20.11051 | -156.05928 | 16992 ft | 410 kts | 131° |
| 2026-04-22 16:02 | 20.09605 | -156.04575 | 16980 ft | 410 kts | 147° |
| 2026-04-22 16:02 | 20.06091 | -156.03219 | 17007 ft | 407 kts | 171° |
| 2026-04-22 16:02 | 20.03275 | -156.02947 | 17016 ft | 406 kts | 180° |
| 2026-04-22 16:03 | 20.00443 | -156.02949 | 17020 ft | 406 kts | 182° |
| 2026-04-22 16:03 | 19.98248 | -156.02981 | 17016 ft | 406 kts | 182° |
| 2026-04-22 16:03 | 19.96371 | -156.03001 | 17011 ft | 406 kts | 181° |
| 2026-04-22 16:03 | 19.92642 | -156.03278 | 16411 ft | 400 kts | 197° |
| 2026-04-22 16:04 | 19.90099 | -156.04373 | 15907 ft | 389 kts | 209° |
| 2026-04-22 16:04 | 19.87791 | -156.05818 | 15420 ft | 381 kts | 214° |
| 2026-04-22 16:04 | 19.86326 | -156.06827 | 15106 ft | 376 kts | 214° |
| 2026-04-22 16:04 | 19.84151 | -156.08339 | 14637 ft | 371 kts | 214° |
| 2026-04-22 16:05 | 19.81996 | -156.09805 | 14180 ft | 366 kts | 213° |
| 2026-04-22 16:05 | 19.79832 | -156.11202 | 13709 ft | 361 kts | 212° |
| 2026-04-22 16:05 | 19.77686 | -156.12562 | 13210 ft | 357 kts | 212° |
| 2026-04-22 16:05 | 19.75574 | -156.13908 | 12730 ft | 352 kts | 212° |
| 2026-04-22 16:06 | 19.73490 | -156.15239 | 12263 ft | 347 kts | 212° |
| 2026-04-22 16:06 | 19.71437 | -156.16552 | 11808 ft | 342 kts | 212° |
| 2026-04-22 16:06 | 19.69410 | -156.17846 | 11364 ft | 337 kts | 212° |
| 2026-04-22 16:06 | 19.67413 | -156.19120 | 10913 ft | 332 kts | 212° |
| 2026-04-22 16:07 | 19.65448 | -156.20375 | 10494 ft | 328 kts | 212° |
| 2026-04-22 16:07 | 19.63504 | -156.21615 | 10083 ft | 323 kts | 212° |
| 2026-04-22 16:07 | 19.61616 | -156.22820 | 9643 ft | 318 kts | 212° |
| 2026-04-22 16:07 | 19.59716 | -156.23999 | 9156 ft | 316 kts | 207° |
| 2026-04-22 16:08 | 19.57588 | -156.24487 | 8621 ft | 316 kts | 177° |
| 2026-04-22 16:08 | 19.55517 | -156.23807 | 8145 ft | 314 kts | 148° |
| 2026-04-22 16:08 | 19.54025 | -156.22164 | 7699 ft | 311 kts | 118° |
| 2026-04-22 16:08 | 19.53345 | -156.20015 | 7282 ft | 306 kts | 101° |
| 2026-04-22 16:09 | 19.53039 | -156.17799 | 6869 ft | 302 kts | 95° |
| 2026-04-22 16:09 | 19.52890 | -156.15592 | 6452 ft | 298 kts | 93° |
| 2026-04-22 16:09 | 19.52785 | -156.13429 | 5994 ft | 288 kts | 92° |
| 2026-04-22 16:09 | 19.52691 | -156.11348 | 5537 ft | 278 kts | 91° |
| 2026-04-22 16:10 | 19.53050 | -156.09393 | 5046 ft | 269 kts | 60° |
| 2026-04-22 16:10 | 19.54310 | -156.07998 | 4614 ft | 260 kts | 35° |
| 2026-04-22 16:10 | 19.55816 | -156.06980 | 4181 ft | 254 kts | 30° |
| 2026-04-22 16:10 | 19.57359 | -156.06114 | 3765 ft | 248 kts | 25° |
| 2026-04-22 16:11 | 19.58998 | -156.05660 | 3357 ft | 241 kts | 3° |
| 2026-04-22 16:11 | 19.60636 | -156.05597 | 2992 ft | 231 kts | 1° |
| 2026-04-22 16:11 | 19.62217 | -156.05551 | 2615 ft | 223 kts | 1° |
| 2026-04-22 16:11 | 19.63732 | -156.05536 | 2283 ft | 210 kts | 359° |
| 2026-04-22 16:12 | 19.65157 | -156.05539 | 1945 ft | 200 kts | 0° |
| 2026-04-22 16:12 | 19.66518 | -156.05404 | 1544 ft | 196 kts | 12° |
| 2026-04-22 16:12 | 19.67770 | -156.05129 | 1302 ft | 164 kts | 10° |
| 2026-04-22 16:12 | 19.68823 | -156.05023 | 934 ft | 145 kts | 5° |
| 2026-04-22 16:13 | 19.69809 | -156.04936 | 662 ft | 143 kts | 7° |
| 2026-04-22 16:13 | 19.70835 | -156.04845 | 434 ft | 151 kts | 6° |
| 2026-04-22 16:13 | 19.71871 | -156.04750 | 217 ft | 145 kts | 7° |
| 2026-04-22 16:13 | 19.72855 | -156.04662 | 49 ft | 141 kts | 6° |
| 2026-04-22 16:14 | 19.73721 | -156.04580 | 43 ft | 100 kts | 5° |
| 2026-04-22 16:14 | 19.74268 | -156.04532 | 44 ft | 61 kts | 5° |
| 2026-04-22 16:14 | 19.74634 | -156.04498 | 47 ft | 49 kts | 4° |
| 2026-04-22 16:14 | 19.74961 | -156.04473 | 45 ft | 45 kts | 4° |
| 2026-04-22 16:15 | 19.75257 | -156.04446 | 43 ft | 40 kts | 5° |
| 2026-04-22 16:15 | 19.75372 | -156.04374 | 40 ft | 17 kts | 89° |
| 2026-04-22 16:15 | 19.75365 | -156.04255 | 42 ft | 15 kts | 97° |
| 2026-04-22 16:15 | 19.75306 | -156.04183 | 42 ft | 13 kts | 178° |
| 2026-04-22 16:16 | 19.75212 | -156.04189 | 45 ft | 14 kts | 185° |
| 2026-04-22 16:16 | 19.75118 | -156.04198 | 46 ft | 13 kts | 186° |
| 2026-04-22 16:16 | 19.75030 | -156.04206 | 48 ft | 12 kts | 185° |
| 2026-04-22 16:16 | 19.74953 | -156.04213 | 50 ft | 10 kts | 185° |
| 2026-04-22 16:17 | 19.74876 | -156.04220 | 51 ft | 12 kts | 185° |
| 2026-04-22 16:17 | 19.74784 | -156.04228 | 50 ft | 15 kts | 185° |
| 2026-04-22 16:17 | 19.74674 | -156.04238 | 48 ft | 17 kts | 185° |
| 2026-04-22 16:17 | 19.74556 | -156.04248 | 48 ft | 17 kts | 185° |
| 2026-04-22 16:18 | 19.74434 | -156.04259 | 44 ft | 18 kts | 185° |
| 2026-04-22 16:18 | 19.74301 | -156.04271 | 44 ft | 20 kts | 185° |
| 2026-04-22 16:18 | 19.74152 | -156.04284 | 41 ft | 22 kts | 185° |
| 2026-04-22 16:18 | 19.73998 | -156.04298 | 41 ft | 21 kts | 186° |
| 2026-04-22 16:19 | 19.73881 | -156.04308 | 40 ft | 13 kts | 169° |
| 2026-04-22 16:19 | 19.73850 | -156.04233 | 41 ft | 10 kts | 95° |
| 2026-04-22 16:19 | 19.73847 | -156.04176 | 44 ft | 3 kts | 85° |
| 2026-04-22 16:19 | 19.73848 | -156.04167 | 44 ft | 2 kts | 70° |
| 2026-04-22 16:20 | 19.73851 | -156.04162 | 45 ft | 3 kts | 64° |
| 2026-04-22 16:20 | 19.73858 | -156.04148 | 45 ft | 2 kts | 62° |
| 2026-04-22 16:20 | 19.73860 | -156.04144 | 42 ft | 0 kts | 62° |
| 2026-04-22 16:20 | 19.73862 | -156.04139 | 44 ft | 0 kts | 62° |